createdAt,value
2024-04-08T05:47:34.121Z,13.70
2024-04-08T05:51:38.955Z,13.70
2024-04-08T05:55:43.651Z,13.70
2024-04-08T05:59:48.392Z,14.00
2024-04-08T06:03:55.601Z,14.60
2024-04-08T06:08:00.528Z,15.30
2024-04-08T06:12:05.193Z,15.40
2024-04-08T06:16:10.212Z,16.10
2024-04-08T06:20:17.391Z,16.50
2024-04-08T06:24:22.245Z,16.80
2024-04-08T06:36:39.922Z,16.20
2024-04-08T06:40:46.159Z,16.50
2024-04-08T06:44:51.422Z,16.40
2024-04-08T06:48:56.129Z,16.30
2024-04-08T07:09:28.266Z,16.10
2024-04-08T07:13:33.199Z,16.50
2024-04-08T07:21:42.716Z,16.60
2024-04-08T07:25:51.450Z,17.00
2024-04-08T07:29:56.066Z,17.90
2024-04-08T07:34:00.676Z,18.20
2024-04-08T07:38:05.335Z,18.50
2024-04-08T07:42:13.240Z,19.20
2024-04-08T07:46:17.979Z,19.60
2024-04-08T07:50:22.596Z,19.90
2024-04-08T07:54:27.202Z,20.00
2024-04-08T07:58:35.653Z,20.10
2024-04-08T08:02:40.331Z,20.30
2024-04-08T08:06:44.956Z,20.50
2024-04-08T08:10:49.520Z,20.60
2024-04-08T08:14:56.771Z,20.70
2024-04-08T08:19:01.470Z,20.80
2024-04-08T08:23:06.362Z,20.20
2024-04-08T08:27:11.171Z,20.50
2024-04-08T08:31:18.435Z,20.70
2024-04-08T08:35:23.014Z,20.50
2024-04-08T08:39:27.716Z,20.40
2024-04-08T08:43:33.725Z,20.80
2024-04-08T08:47:41.111Z,21.20
2024-04-08T08:51:43.389Z,21.50
2024-04-08T08:55:48.266Z,22.00
2024-04-08T08:59:54.574Z,22.20
2024-04-08T09:04:09.733Z,21.90
2024-04-08T09:08:15.971Z,21.80
2024-04-08T09:12:20.743Z,21.80
2024-04-08T09:16:25.635Z,22.40
2024-04-08T09:20:32.868Z,22.50
2024-04-08T09:24:37.563Z,22.50
2024-04-08T09:28:44.472Z,22.90
2024-04-08T09:32:49.154Z,23.00
2024-04-08T09:36:58.019Z,23.10
2024-04-08T09:41:03.177Z,23.60
2024-04-08T09:45:08.932Z,23.70
2024-04-08T09:49:21.382Z,23.80
2024-04-08T09:53:34.162Z,23.70
2024-04-08T09:57:42.908Z,24.10
2024-04-08T10:01:49.298Z,24.70
2024-04-08T10:05:54.294Z,24.90
2024-04-08T10:10:03.534Z,25.10
2024-04-08T10:14:19.191Z,25.20
2024-04-08T10:18:23.999Z,25.20
2024-04-08T10:22:32.007Z,24.60
2024-04-08T10:26:40.270Z,24.50
2024-04-08T10:30:47.946Z,24.50
2024-04-08T10:34:49.931Z,24.70
2024-04-08T10:38:54.498Z,24.80
2024-04-08T10:43:01.795Z,24.70
2024-04-08T10:47:08.901Z,24.60
2024-04-08T10:51:14.849Z,24.40
2024-04-08T10:55:19.505Z,24.10
2024-04-08T10:59:26.862Z,24.10
2024-04-08T11:03:31.589Z,24.20
2024-04-08T11:07:36.931Z,24.30
2024-04-08T11:11:43.891Z,24.10
2024-04-08T11:15:55.109Z,24.00
2024-04-08T11:20:03.246Z,23.90
2024-04-08T11:24:14.430Z,23.80
2024-04-08T11:28:19.251Z,23.80
2024-04-08T11:32:29.969Z,23.80
2024-04-08T11:36:34.904Z,23.90
2024-04-08T11:40:40.261Z,24.10
2024-04-08T11:44:46.391Z,24.10
2024-04-08T11:48:53.846Z,23.90
2024-04-08T11:52:58.858Z,24.10
2024-04-08T11:57:03.755Z,24.30
2024-04-08T12:01:08.417Z,24.30
2024-04-08T12:05:17.681Z,24.00
2024-04-08T12:09:22.518Z,23.90
2024-04-08T12:13:27.851Z,24.10
2024-04-08T12:17:29.881Z,24.10
2024-04-08T12:21:37.178Z,24.20
2024-04-08T12:25:41.916Z,24.10
2024-04-08T12:29:46.542Z,24.00
2024-04-08T12:33:51.211Z,23.70
2024-04-08T12:37:58.656Z,23.50
2024-04-08T12:42:03.261Z,23.40
2024-04-08T12:46:08.729Z,23.40
2024-04-08T12:50:13.556Z,23.30
2024-04-08T12:54:20.890Z,23.20
2024-04-08T12:58:25.562Z,23.20
2024-04-08T13:02:30.121Z,23.00
2024-04-08T13:06:37.642Z,23.20
2024-04-08T13:10:44.885Z,23.40
2024-04-08T13:14:49.745Z,23.50
2024-04-08T13:18:54.477Z,23.80
2024-04-08T13:22:59.137Z,23.90
2024-04-08T13:27:06.449Z,23.90
2024-04-08T13:31:11.188Z,23.70
2024-04-08T13:35:15.742Z,23.60
2024-04-08T13:39:20.798Z,23.40
2024-04-08T13:43:27.970Z,23.60
2024-04-08T13:47:32.869Z,24.00
2024-04-08T13:51:37.571Z,24.00
2024-04-08T13:55:44.934Z,23.80
2024-04-08T13:59:54.080Z,24.00
2024-04-08T14:04:00.179Z,24.20
2024-04-08T14:08:04.995Z,24.30
2024-04-08T14:12:11.689Z,24.50
2024-04-08T14:16:20.378Z,24.60
2024-04-08T14:20:24.979Z,24.50
2024-04-08T14:24:29.759Z,24.80
2024-04-08T14:28:34.401Z,24.60
2024-04-08T14:32:41.597Z,24.90
2024-04-08T14:36:49.162Z,25.40
2024-04-08T14:40:53.886Z,25.70
2024-04-08T14:45:04.232Z,25.90
2024-04-08T14:49:12.687Z,26.00
2024-04-08T14:53:17.704Z,25.90
2024-04-08T14:57:22.499Z,25.90
2024-04-08T15:01:27.605Z,25.80
2024-04-08T15:05:34.738Z,25.90
2024-04-08T15:09:42.910Z,25.70
2024-04-08T15:13:47.507Z,25.50
2024-04-08T15:17:54.159Z,25.40
2024-04-08T15:22:01.369Z,25.20
2024-04-08T15:26:06.261Z,25.00
2024-04-08T15:30:11.787Z,24.70
2024-04-08T15:34:16.697Z,24.70
2024-04-08T15:38:24.379Z,25.00
2024-04-08T15:42:28.964Z,25.40
2024-04-08T15:46:34.268Z,25.80
2024-04-08T15:50:41.007Z,25.90
2024-04-08T15:54:51.849Z,25.60
2024-04-08T15:58:56.749Z,25.80
2024-04-08T16:03:02.101Z,25.90
2024-04-08T16:07:11.043Z,25.70
2024-04-08T16:11:24.212Z,25.40
2024-04-08T16:15:29.036Z,25.30
2024-04-08T16:19:33.662Z,25.30
2024-04-08T16:23:52.529Z,25.00
2024-04-08T16:28:02.940Z,24.80
2024-04-08T16:32:08.123Z,24.60
2024-04-08T16:36:16.278Z,24.40
2024-04-08T16:40:23.758Z,24.40
2024-04-08T16:44:30.948Z,24.20
2024-04-08T16:48:35.745Z,24.20
2024-04-08T16:52:42.468Z,24.20
2024-04-08T16:56:47.363Z,24.10
2024-04-08T17:00:54.945Z,23.80
2024-04-08T17:04:59.708Z,23.70
2024-04-08T17:09:04.313Z,23.50
2024-04-08T17:13:09.657Z,23.50
2024-04-08T17:17:16.860Z,23.50
2024-04-08T17:21:21.599Z,23.30
2024-04-08T17:25:23.649Z,23.00
2024-04-08T17:29:28.203Z,23.00
2024-04-08T17:33:36.709Z,22.90
2024-04-08T17:37:38.835Z,22.70
2024-04-08T17:41:49.154Z,22.40
2024-04-08T17:45:54.075Z,22.20
2024-04-08T17:50:01.574Z,22.00
2024-04-08T17:54:07.079Z,21.90
2024-04-08T17:58:09.130Z,21.70
2024-04-08T18:02:13.809Z,21.50
2024-04-08T18:06:23.146Z,21.30
2024-04-08T18:10:28.173Z,21.10
2024-04-08T18:14:35.300Z,21.00
2024-04-08T18:18:40.507Z,20.80
2024-04-08T18:22:47.779Z,20.60
2024-04-08T18:26:53.185Z,20.50
2024-04-08T18:31:07.775Z,20.40
2024-04-08T18:35:14.234Z,20.20
2024-04-08T18:39:22.796Z,20.00
2024-04-08T18:43:31.129Z,19.90
2024-04-08T18:47:36.838Z,19.90
2024-04-08T18:51:42.512Z,19.80
2024-04-08T18:55:49.855Z,19.70
2024-04-08T18:59:54.945Z,19.60
2024-04-08T19:04:00.378Z,19.40
2024-04-08T19:08:08.792Z,19.30
2024-04-08T19:12:17.294Z,19.20
2024-04-08T19:16:22.509Z,19.10
2024-04-08T19:20:24.882Z,19.00
2024-04-08T19:24:30.624Z,19.00
2024-04-08T19:28:38.963Z,18.70
2024-04-08T19:32:45.001Z,18.50
2024-04-08T19:36:48.839Z,18.40
2024-04-08T19:41:02.340Z,18.20
2024-04-08T19:45:19.144Z,18.20
2024-04-08T19:49:30.227Z,18.20
2024-04-08T19:53:37.011Z,18.30
2024-04-08T19:57:41.669Z,18.60
2024-04-08T20:02:02.866Z,18.60
2024-04-08T20:06:08.312Z,18.70
2024-04-08T20:10:17.138Z,18.70
2024-04-08T20:14:22.159Z,18.80
2024-04-08T20:18:29.972Z,18.90
2024-04-08T20:22:34.757Z,18.90
2024-04-08T20:26:39.718Z,19.00
2024-04-08T20:30:44.452Z,19.10
2024-04-08T20:34:51.644Z,19.00
2024-04-08T20:38:56.541Z,18.90
2024-04-08T20:43:01.343Z,18.90
2024-04-08T20:47:06.212Z,18.90
2024-04-08T20:51:13.714Z,19.00
2024-04-08T20:55:20.045Z,19.20
2024-04-08T20:59:25.183Z,19.20
2024-04-08T21:03:34.670Z,19.20
2024-04-08T21:07:42.123Z,19.20
2024-04-08T21:11:48.603Z,19.20
2024-04-08T21:15:57.857Z,19.20
2024-04-08T21:20:06.915Z,19.30
2024-04-08T21:24:14.151Z,19.20
2024-04-08T21:28:19.180Z,19.20
2024-04-08T21:32:24.015Z,19.20
2024-04-08T21:36:28.743Z,19.00
2024-04-08T21:40:37.892Z,19.10
2024-04-08T21:44:44.095Z,19.10
2024-04-08T21:48:49.062Z,19.20
2024-04-08T21:52:54.112Z,19.20
2024-04-08T21:57:01.520Z,19.20
2024-04-08T22:01:08.711Z,19.30
2024-04-08T22:05:13.590Z,19.40
2024-04-08T22:09:18.583Z,19.40
2024-04-08T22:13:27.750Z,19.30
2024-04-08T22:17:33.168Z,19.30
2024-04-08T22:21:37.872Z,19.30
2024-04-08T22:25:41.608Z,19.30
2024-04-08T22:29:48.764Z,19.30
2024-04-08T22:33:53.542Z,19.30
2024-04-08T22:38:01.039Z,19.30
2024-04-08T22:42:09.586Z,19.30
2024-04-08T22:46:16.742Z,19.30
2024-04-08T22:50:22.134Z,19.40
2024-04-08T22:54:26.769Z,19.50
2024-04-08T22:58:31.370Z,19.60
2024-04-08T23:02:39.040Z,19.70
2024-04-08T23:07:12.896Z,19.70
2024-04-08T23:11:52.580Z,19.70
2024-04-08T23:16:30.277Z,19.70
2024-04-08T23:20:52.884Z,19.80
2024-04-08T23:24:57.659Z,19.80
2024-04-08T23:29:41.662Z,19.90
2024-04-08T23:39:36.233Z,19.90
2024-04-08T23:43:44.111Z,19.80
2024-04-08T23:47:49.544Z,19.80
2024-04-08T23:52:09.208Z,19.60
2024-04-08T23:56:17.544Z,19.40
